sensor_id;sensor_type;location;lat;lon;timestamp;pressure;altitude;pressure_sealevel;temperature;humidity
71996;BME280;59862;47.732;7.346;2023-06-19T00:01:15;97812.23;;;20.29;69.45
71996;BME280;59862;47.732;7.346;2023-06-19T00:03:42;97815.88;;;20.35;68.61
71996;BME280;59862;47.732;7.346;2023-06-19T00:06:10;97818.66;;;20.40;67.21
71996;BME280;59862;47.732;7.346;2023-06-19T00:08:39;97829.73;;;20.50;66.93
71996;BME280;59862;47.732;7.346;2023-06-19T00:11:09;97833.30;;;20.53;66.01
71996;BME280;59862;47.732;7.346;2023-06-19T00:13:36;97837.26;;;20.62;65.89
71996;BME280;59862;47.732;7.346;2023-06-19T00:16:04;97842.27;;;20.68;64.19
71996;BME280;59862;47.732;7.346;2023-06-19T00:18:31;97850.22;;;20.72;64.03
71996;BME280;59862;47.732;7.346;2023-06-19T00:21:00;97855.98;;;20.75;63.65
71996;BME280;59862;47.732;7.346;2023-06-19T00:23:28;97860.08;;;20.75;63.96
71996;BME280;59862;47.732;7.346;2023-06-19T00:25:56;97867.52;;;20.80;61.79
71996;BME280;59862;47.732;7.346;2023-06-19T00:28:25;97867.41;;;20.91;60.56
71996;BME280;59862;47.732;7.346;2023-06-19T00:30:53;97872.68;;;20.98;60.52
71996;BME280;59862;47.732;7.346;2023-06-19T00:33:20;97878.55;;;21.06;59.29
71996;BME280;59862;47.732;7.346;2023-06-19T00:35:52;97882.65;;;21.06;59.73
71996;BME280;59862;47.732;7.346;2023-06-19T00:38:21;97883.79;;;21.10;59.85
71996;BME280;59862;47.732;7.346;2023-06-19T00:40:50;97896.06;;;21.10;59.88
71996;BME280;59862;47.732;7.346;2023-06-19T00:43:17;97903.08;;;21.04;60.40
71996;BME280;59862;47.732;7.346;2023-06-19T00:45:45;97916.56;;;20.96;61.18
71996;BME280;59862;47.732;7.346;2023-06-19T00:48:12;97931.34;;;20.81;61.96
71996;BME280;59862;47.732;7.346;2023-06-19T00:50:40;97931.75;;;20.54;64.28
71996;BME280;59862;47.732;7.346;2023-06-19T00:53:07;97932.61;;;20.24;66.88
71996;BME280;59862;47.732;7.346;2023-06-19T00:55:35;97938.74;;;19.89;70.59
71996;BME280;59862;47.732;7.346;2023-06-19T00:58:04;97944.74;;;19.23;74.87
71996;BME280;59862;47.732;7.346;2023-06-19T01:00:32;97944.84;;;18.56;79.51
71996;BME280;59862;47.732;7.346;2023-06-19T01:02:59;97943.27;;;18.16;82.36
71996;BME280;59862;47.732;7.346;2023-06-19T01:05:27;97939.34;;;17.91;85.50
71996;BME280;59862;47.732;7.346;2023-06-19T01:07:59;97938.06;;;17.73;87.54
71996;BME280;59862;47.732;7.346;2023-06-19T01:10:49;97932.38;;;17.54;89.34
71996;BME280;59862;47.732;7.346;2023-06-19T01:15:48;97943.81;;;17.38;91.07
71996;BME280;59862;47.732;7.346;2023-06-19T01:18:16;97934.91;;;17.31;91.73
71996;BME280;59862;47.732;7.346;2023-06-19T01:20:44;97944.73;;;17.32;92.94
71996;BME280;59862;47.732;7.346;2023-06-19T01:23:12;97942.77;;;17.21;93.33
71996;BME280;59862;47.732;7.346;2023-06-19T01:25:39;97934.19;;;17.15;93.81
71996;BME280;59862;47.732;7.346;2023-06-19T01:28:09;97944.44;;;17.13;94.22
71996;BME280;59862;47.732;7.346;2023-06-19T01:30:40;97951.49;;;17.05;94.67
71996;BME280;59862;47.732;7.346;2023-06-19T01:33:26;97953.31;;;17.02;95.04
71996;BME280;59862;47.732;7.346;2023-06-19T01:35:56;97954.28;;;16.98;95.44
71996;BME280;59862;47.732;7.346;2023-06-19T01:38:25;97959.02;;;16.94;95.90
71996;BME280;59862;47.732;7.346;2023-06-19T01:40:55;97965.19;;;16.92;96.28
71996;BME280;59862;47.732;7.346;2023-06-19T01:43:24;97970.17;;;16.95;96.61
71996;BME280;59862;47.732;7.346;2023-06-19T01:45:52;97968.66;;;16.99;96.89
71996;BME280;59862;47.732;7.346;2023-06-19T01:48:20;97968.31;;;17.04;96.98
71996;BME280;59862;47.732;7.346;2023-06-19T01:50:48;97967.48;;;17.04;97.24
71996;BME280;59862;47.732;7.346;2023-06-19T01:53:16;97966.27;;;17.00;97.44
71996;BME280;59862;47.732;7.346;2023-06-19T01:55:44;97968.58;;;16.96;97.52
71996;BME280;59862;47.732;7.346;2023-06-19T01:58:12;97975.16;;;16.98;97.63
71996;BME280;59862;47.732;7.346;2023-06-19T02:00:39;97963.48;;;16.97;97.83
71996;BME280;59862;47.732;7.346;2023-06-19T02:03:07;97966.11;;;16.95;98.14
71996;BME280;59862;47.732;7.346;2023-06-19T02:05:34;97960.97;;;16.96;98.37
71996;BME280;59862;47.732;7.346;2023-06-19T02:08:03;97955.55;;;16.96;98.58
71996;BME280;59862;47.732;7.346;2023-06-19T02:10:31;97949.41;;;16.98;98.77
71996;BME280;59862;47.732;7.346;2023-06-19T02:12:59;97949.32;;;16.95;99.02
71996;BME280;59862;47.732;7.346;2023-06-19T02:15:26;97945.11;;;16.99;99.41
71996;BME280;59862;47.732;7.346;2023-06-19T02:17:55;97945.63;;;17.08;99.45
71996;BME280;59862;47.732;7.346;2023-06-19T02:20:23;97939.22;;;17.11;99.51
71996;BME280;59862;47.732;7.346;2023-06-19T02:22:51;97943.01;;;17.19;99.36
71996;BME280;59862;47.732;7.346;2023-06-19T02:25:19;97952.19;;;17.27;99.20
71996;BME280;59862;47.732;7.346;2023-06-19T02:27:47;97958.45;;;17.28;98.80
71996;BME280;59862;47.732;7.346;2023-06-19T02:30:14;97949.39;;;17.34;98.54
71996;BME280;59862;47.732;7.346;2023-06-19T02:32:42;97949.67;;;17.35;98.24
71996;BME280;59862;47.732;7.346;2023-06-19T02:35:10;97952.86;;;17.41;98.01
71996;BME280;59862;47.732;7.346;2023-06-19T02:37:38;97962.20;;;17.27;97.65
71996;BME280;59862;47.732;7.346;2023-06-19T02:40:06;97964.98;;;17.29;97.62
71996;BME280;59862;47.732;7.346;2023-06-19T02:42:35;97967.94;;;17.28;97.40
71996;BME280;59862;47.732;7.346;2023-06-19T02:45:03;97972.97;;;17.24;97.27
71996;BME280;59862;47.732;7.346;2023-06-19T02:47:31;97966.70;;;17.24;97.27
71996;BME280;59862;47.732;7.346;2023-06-19T02:50:00;97973.52;;;17.15;97.40
71996;BME280;59862;47.732;7.346;2023-06-19T02:52:29;97978.38;;;17.15;97.52
71996;BME280;59862;47.732;7.346;2023-06-19T02:54:57;97975.14;;;17.07;97.62
71996;BME280;59862;47.732;7.346;2023-06-19T02:57:25;97972.75;;;17.08;97.81
71996;BME280;59862;47.732;7.346;2023-06-19T02:59:53;97967.32;;;17.08;97.99
71996;BME280;59862;47.732;7.346;2023-06-19T03:02:21;97967.48;;;17.04;98.18
71996;BME280;59862;47.732;7.346;2023-06-19T03:04:48;97968.83;;;17.04;98.24
71996;BME280;59862;47.732;7.346;2023-06-19T03:07:16;97965.97;;;17.08;98.24
71996;BME280;59862;47.732;7.346;2023-06-19T03:09:44;97963.17;;;17.05;98.35
71996;BME280;59862;47.732;7.346;2023-06-19T03:12:11;97957.31;;;17.08;98.43
71996;BME280;59862;47.732;7.346;2023-06-19T03:14:39;97964.14;;;17.11;98.48
71996;BME280;59862;47.732;7.346;2023-06-19T03:17:06;97964.70;;;17.10;98.59
71996;BME280;59862;47.732;7.346;2023-06-19T03:19:34;97960.31;;;17.09;98.75
71996;BME280;59862;47.732;7.346;2023-06-19T03:22:02;97960.78;;;17.06;98.97
71996;BME280;59862;47.732;7.346;2023-06-19T03:24:29;97960.84;;;17.18;99.07
71996;BME280;59862;47.732;7.346;2023-06-19T03:26:57;97967.61;;;17.09;98.92
71996;BME280;59862;47.732;7.346;2023-06-19T03:29:24;97961.53;;;17.04;98.80
71996;BME280;59862;47.732;7.346;2023-06-19T03:31:52;97954.95;;;17.03;98.85
71996;BME280;59862;47.732;7.346;2023-06-19T03:34:19;97958.89;;;16.98;98.91
71996;BME280;59862;47.732;7.346;2023-06-19T03:36:46;97959.70;;;16.98;98.95
71996;BME280;59862;47.732;7.346;2023-06-19T03:39:14;97963.08;;;16.94;99.02
71996;BME280;59862;47.732;7.346;2023-06-19T03:41:41;97959.56;;;16.93;99.07
71996;BME280;59862;47.732;7.346;2023-06-19T03:44:09;97958.73;;;16.93;99.14
71996;BME280;59862;47.732;7.346;2023-06-19T03:46:36;97955.27;;;16.95;99.25
71996;BME280;59862;47.732;7.346;2023-06-19T03:49:04;97952.92;;;16.98;99.32
71996;BME280;59862;47.732;7.346;2023-06-19T03:51:33;97946.23;;;17.01;99.32
71996;BME280;59862;47.732;7.346;2023-06-19T03:54:00;97940.81;;;17.10;99.38
71996;BME280;59862;47.732;7.346;2023-06-19T03:56:28;97935.83;;;17.16;99.26
71996;BME280;59862;47.732;7.346;2023-06-19T03:58:55;97926.50;;;17.21;99.11
71996;BME280;59862;47.732;7.346;2023-06-19T04:01:22;97933.13;;;17.25;98.81
71996;BME280;59862;47.732;7.346;2023-06-19T04:03:50;97927.37;;;17.33;98.39
71996;BME280;59862;47.732;7.346;2023-06-19T04:06:17;97925.58;;;17.36;98.09
71996;BME280;59862;47.732;7.346;2023-06-19T04:08:45;97927.09;;;17.41;97.99
71996;BME280;59862;47.732;7.346;2023-06-19T04:11:12;97923.55;;;17.40;97.89
71996;BME280;59862;47.732;7.346;2023-06-19T04:13:40;97927.68;;;17.52;97.67
71996;BME280;59862;47.732;7.346;2023-06-19T04:16:07;97920.45;;;17.55;97.20
71996;BME280;59862;47.732;7.346;2023-06-19T04:18:35;97917.80;;;17.49;96.81
71996;BME280;59862;47.732;7.346;2023-06-19T04:21:02;97918.87;;;17.48;96.64
71996;BME280;59862;47.732;7.346;2023-06-19T04:23:30;97927.99;;;17.53;96.58
71996;BME280;59862;47.732;7.346;2023-06-19T04:25:57;97930.26;;;17.56;96.15
71996;BME280;59862;47.732;7.346;2023-06-19T04:28:24;97927.83;;;17.57;95.63
71996;BME280;59862;47.732;7.346;2023-06-19T04:30:52;97945.02;;;17.60;95.38
71996;BME280;59862;47.732;7.346;2023-06-19T04:33:21;97945.30;;;17.61;95.15
71996;BME280;59862;47.732;7.346;2023-06-19T04:35:49;97928.41;;;17.68;94.89
71996;BME280;59862;47.732;7.346;2023-06-19T04:38:16;97930.86;;;17.58;94.53
71996;BME280;59862;47.732;7.346;2023-06-19T04:40:43;97923.91;;;17.62;94.60
71996;BME280;59862;47.732;7.346;2023-06-19T04:43:11;97934.17;;;17.60;94.21
71996;BME280;59862;47.732;7.346;2023-06-19T04:45:39;97941.99;;;17.59;93.93
71996;BME280;59862;47.732;7.346;2023-06-19T04:48:06;97932.05;;;17.62;94.01
71996;BME280;59862;47.732;7.346;2023-06-19T04:50:34;97934.79;;;17.74;93.91
71996;BME280;59862;47.732;7.346;2023-06-19T04:53:01;97929.67;;;17.75;93.75
71996;BME280;59862;47.732;7.346;2023-06-19T04:55:29;97935.94;;;17.75;93.76
71996;BME280;59862;47.732;7.346;2023-06-19T04:57:57;97934.42;;;17.79;93.16
71996;BME280;59862;47.732;7.346;2023-06-19T05:00:25;97931.96;;;17.89;93.03
71996;BME280;59862;47.732;7.346;2023-06-19T05:02:53;97933.11;;;17.91;92.36
71996;BME280;59862;47.732;7.346;2023-06-19T05:05:22;97922.84;;;17.93;92.01
71996;BME280;59862;47.732;7.346;2023-06-19T05:07:49;97914.81;;;17.98;91.87
71996;BME280;59862;47.732;7.346;2023-06-19T05:10:17;97911.58;;;17.98;91.54
71996;BME280;59862;47.732;7.346;2023-06-19T05:12:45;97907.22;;;18.09;91.52
71996;BME280;59862;47.732;7.346;2023-06-19T05:15:13;97902.94;;;18.22;91.54
71996;BME280;59862;47.732;7.346;2023-06-19T05:17:40;97895.53;;;18.08;91.01
71996;BME280;59862;47.732;7.346;2023-06-19T05:20:09;97886.16;;;18.13;91.63
71996;BME280;59862;47.732;7.346;2023-06-19T05:22:37;97882.55;;;18.10;90.87
71996;BME280;59862;47.732;7.346;2023-06-19T05:25:06;97882.33;;;18.12;90.77
71996;BME280;59862;47.732;7.346;2023-06-19T05:27:34;97882.67;;;18.15;90.27
71996;BME280;59862;47.732;7.346;2023-06-19T05:30:01;97887.30;;;18.27;90.18
71996;BME280;59862;47.732;7.346;2023-06-19T05:32:28;97893.93;;;18.42;90.21
71996;BME280;59862;47.732;7.346;2023-06-19T05:34:56;97890.77;;;18.57;89.87
71996;BME280;59862;47.732;7.346;2023-06-19T05:37:23;97895.69;;;18.69;88.50
71996;BME280;59862;47.732;7.346;2023-06-19T05:39:51;97892.23;;;18.85;87.85
71996;BME280;59862;47.732;7.346;2023-06-19T05:42:18;97893.45;;;19.03;88.12
71996;BME280;59862;47.732;7.346;2023-06-19T05:44:46;97891.13;;;19.09;87.06
71996;BME280;59862;47.732;7.346;2023-06-19T05:47:13;97887.97;;;19.15;86.41
71996;BME280;59862;47.732;7.346;2023-06-19T05:49:42;97890.55;;;19.21;85.64
71996;BME280;59862;47.732;7.346;2023-06-19T05:52:10;97896.22;;;19.31;85.28
71996;BME280;59862;47.732;7.346;2023-06-19T05:54:37;97904.58;;;19.53;85.51
71996;BME280;59862;47.732;7.346;2023-06-19T05:57:05;97901.98;;;19.60;84.46
71996;BME280;59862;47.732;7.346;2023-06-19T05:59:33;97904.31;;;19.68;84.49
71996;BME280;59862;47.732;7.346;2023-06-19T06:02:00;97909.59;;;19.73;84.38
71996;BME280;59862;47.732;7.346;2023-06-19T06:04:29;97905.88;;;19.79;84.27
71996;BME280;59862;47.732;7.346;2023-06-19T06:07:01;97906.47;;;19.81;83.44
71996;BME280;59862;47.732;7.346;2023-06-19T06:09:29;97912.23;;;19.84;83.29
71996;BME280;59862;47.732;7.346;2023-06-19T06:11:56;97912.36;;;20.06;84.67
71996;BME280;59862;47.732;7.346;2023-06-19T06:14:24;97912.78;;;20.14;84.48
71996;BME280;59862;47.732;7.346;2023-06-19T06:16:52;97913.59;;;20.26;84.63
71996;BME280;59862;47.732;7.346;2023-06-19T06:19:23;97919.70;;;20.33;84.64
71996;BME280;59862;47.732;7.346;2023-06-19T06:21:51;97925.75;;;20.38;83.55
71996;BME280;59862;47.732;7.346;2023-06-19T06:24:18;97930.60;;;20.50;83.05
71996;BME280;59862;47.732;7.346;2023-06-19T06:26:45;97926.56;;;20.53;83.12
71996;BME280;59862;47.732;7.346;2023-06-19T06:29:13;97933.25;;;20.62;83.10
71996;BME280;59862;47.732;7.346;2023-06-19T06:31:40;97933.16;;;20.57;81.03
71996;BME280;59862;47.732;7.346;2023-06-19T06:34:08;97932.25;;;20.68;81.07
71996;BME280;59862;47.732;7.346;2023-06-19T06:36:35;97936.88;;;20.67;80.49
71996;BME280;59862;47.732;7.346;2023-06-19T06:39:03;97940.96;;;20.67;79.74
71996;BME280;59862;47.732;7.346;2023-06-19T06:41:30;97944.75;;;20.83;78.81
71996;BME280;59862;47.732;7.346;2023-06-19T06:43:58;97934.23;;;20.72;78.09
71996;BME280;59862;47.732;7.346;2023-06-19T06:46:25;97944.17;;;20.64;78.15
71996;BME280;59862;47.732;7.346;2023-06-19T06:48:53;97947.30;;;20.73;77.83
71996;BME280;59862;47.732;7.346;2023-06-19T06:51:20;97942.30;;;21.00;76.78
71996;BME280;59862;47.732;7.346;2023-06-19T06:53:49;97936.51;;;21.13;75.32
71996;BME280;59862;47.732;7.346;2023-06-19T06:56:17;97936.76;;;21.55;77.41
71996;BME280;59862;47.732;7.346;2023-06-19T06:58:44;97946.90;;;21.81;74.16
71996;BME280;59862;47.732;7.346;2023-06-19T07:01:14;97947.56;;;21.67;72.77
71996;BME280;59862;47.732;7.346;2023-06-19T07:03:41;97951.73;;;21.53;73.95
71996;BME280;59862;47.732;7.346;2023-06-19T07:06:08;97948.66;;;21.47;74.56
71996;BME280;59862;47.732;7.346;2023-06-19T07:08:36;97954.38;;;21.67;75.97
71996;BME280;59862;47.732;7.346;2023-06-19T07:11:03;97945.67;;;21.46;73.76
71996;BME280;59862;47.732;7.346;2023-06-19T07:13:31;97958.51;;;21.26;75.40
71996;BME280;59862;47.732;7.346;2023-06-19T07:15:58;97956.17;;;21.35;75.25
71996;BME280;59862;47.732;7.346;2023-06-19T07:18:28;97951.17;;;21.10;76.20
71996;BME280;59862;47.732;7.346;2023-06-19T07:20:55;97955.43;;;21.20;77.62
71996;BME280;59862;47.732;7.346;2023-06-19T07:23:23;97956.02;;;21.05;75.67
71996;BME280;59862;47.732;7.346;2023-06-19T07:25:50;97959.98;;;20.98;75.60
71996;BME280;59862;47.732;7.346;2023-06-19T07:28:18;97952.91;;;21.38;75.58
71996;BME280;59862;47.732;7.346;2023-06-19T07:30:45;97955.82;;;21.72;73.97
71996;BME280;59862;47.732;7.346;2023-06-19T07:33:14;97956.22;;;22.07;74.25
71996;BME280;59862;47.732;7.346;2023-06-19T07:35:41;97954.74;;;22.21;74.30
71996;BME280;59862;47.732;7.346;2023-06-19T07:38:09;97953.70;;;22.27;71.04
71996;BME280;59862;47.732;7.346;2023-06-19T07:40:36;97949.13;;;22.35;70.85
71996;BME280;59862;47.732;7.346;2023-06-19T07:43:04;97945.30;;;22.66;71.93
71996;BME280;59862;47.732;7.346;2023-06-19T07:45:31;97947.58;;;22.74;70.74
71996;BME280;59862;47.732;7.346;2023-06-19T07:47:59;97952.28;;;22.83;70.51
71996;BME280;59862;47.732;7.346;2023-06-19T07:50:26;97944.45;;;22.97;67.84
71996;BME280;59862;47.732;7.346;2023-06-19T07:52:53;97943.69;;;23.04;67.50
71996;BME280;59862;47.732;7.346;2023-06-19T07:55:21;97943.45;;;23.10;67.23
71996;BME280;59862;47.732;7.346;2023-06-19T07:57:49;97942.09;;;23.15;64.96
71996;BME280;59862;47.732;7.346;2023-06-19T08:00:18;97942.11;;;23.13;63.73
71996;BME280;59862;47.732;7.346;2023-06-19T08:02:46;97937.92;;;23.47;63.86
71996;BME280;59862;47.732;7.346;2023-06-19T08:05:13;97938.58;;;23.77;64.93
71996;BME280;59862;47.732;7.346;2023-06-19T08:07:41;97938.34;;;23.91;62.10
71996;BME280;59862;47.732;7.346;2023-06-19T08:10:09;97937.47;;;23.70;64.09
71996;BME280;59862;47.732;7.346;2023-06-19T08:12:37;97936.66;;;23.20;63.00
71996;BME280;59862;47.732;7.346;2023-06-19T08:15:05;97940.61;;;23.40;59.00
71996;BME280;59862;47.732;7.346;2023-06-19T08:17:33;97940.49;;;23.76;55.77
71996;BME280;59862;47.732;7.346;2023-06-19T08:20:02;97933.98;;;24.02;54.65
71996;BME280;59862;47.732;7.346;2023-06-19T08:22:31;97936.84;;;24.43;55.32
71996;BME280;59862;47.732;7.346;2023-06-19T08:24:59;97944.00;;;24.79;55.65
71996;BME280;59862;47.732;7.346;2023-06-19T08:27:27;97934.63;;;24.50;53.52
71996;BME280;59862;47.732;7.346;2023-06-19T08:29:54;97938.78;;;24.93;54.95
71996;BME280;59862;47.732;7.346;2023-06-19T08:32:21;97938.14;;;25.28;55.82
71996;BME280;59862;47.732;7.346;2023-06-19T08:34:49;97933.08;;;25.71;51.80
71996;BME280;59862;47.732;7.346;2023-06-19T08:37:17;97938.66;;;25.45;51.21
71996;BME280;59862;47.732;7.346;2023-06-19T08:39:45;97936.64;;;25.69;50.91
71996;BME280;59862;47.732;7.346;2023-06-19T08:42:13;97939.19;;;25.55;49.01
71996;BME280;59862;47.732;7.346;2023-06-19T08:44:40;97939.38;;;25.71;49.34
71996;BME280;59862;47.732;7.346;2023-06-19T08:47:08;97934.87;;;25.93;48.55
71996;BME280;59862;47.732;7.346;2023-06-19T08:49:36;97937.59;;;26.00;46.51
71996;BME280;59862;47.732;7.346;2023-06-19T08:52:04;97932.14;;;26.39;45.51
71996;BME280;59862;47.732;7.346;2023-06-19T08:54:33;97935.41;;;26.80;44.19
71996;BME280;59862;47.732;7.346;2023-06-19T08:57:01;97930.73;;;26.80;42.21
71996;BME280;59862;47.732;7.346;2023-06-19T08:59:30;97927.16;;;27.09;43.72
71996;BME280;59862;47.732;7.346;2023-06-19T09:01:58;97922.75;;;27.36;42.06
71996;BME280;59862;47.732;7.346;2023-06-19T09:04:27;97922.50;;;27.35;41.90
71996;BME280;59862;47.732;7.346;2023-06-19T09:06:57;97926.05;;;27.36;44.93
71996;BME280;59862;47.732;7.346;2023-06-19T09:09:26;97922.74;;;27.34;45.43
71996;BME280;59862;47.732;7.346;2023-06-19T09:12:02;97911.87;;;27.21;44.11
71996;BME280;59862;47.732;7.346;2023-06-19T09:17:03;97917.78;;;27.33;43.12
71996;BME280;59862;47.732;7.346;2023-06-19T09:19:32;97918.41;;;27.75;40.99
71996;BME280;59862;47.732;7.346;2023-06-19T09:22:05;97917.53;;;28.22;40.13
71996;BME280;59862;47.732;7.346;2023-06-19T09:24:38;97920.63;;;28.71;38.18
71996;BME280;59862;47.732;7.346;2023-06-19T09:27:10;97919.61;;;28.81;37.95
71996;BME280;59862;47.732;7.346;2023-06-19T09:29:41;97921.77;;;28.68;40.20
71996;BME280;59862;47.732;7.346;2023-06-19T09:32:22;97919.28;;;28.69;39.51
71996;BME280;59862;47.732;7.346;2023-06-19T09:34:52;97916.05;;;28.45;40.48
71996;BME280;59862;47.732;7.346;2023-06-19T09:37:27;97916.27;;;28.12;39.84
71996;BME280;59862;47.732;7.346;2023-06-19T09:40:01;97907.59;;;28.21;42.00
71996;BME280;59862;47.732;7.346;2023-06-19T09:42:40;97900.73;;;28.00;39.86
71996;BME280;59862;47.732;7.346;2023-06-19T09:45:11;97905.03;;;28.08;40.35
71996;BME280;59862;47.732;7.346;2023-06-19T09:47:42;97902.52;;;28.09;41.39
71996;BME280;59862;47.732;7.346;2023-06-19T09:50:15;97902.97;;;28.16;39.51
71996;BME280;59862;47.732;7.346;2023-06-19T09:52:40;97899.63;;;27.98;39.53
71996;BME280;59862;47.732;7.346;2023-06-19T09:55:11;97895.16;;;27.81;39.88
71996;BME280;59862;47.732;7.346;2023-06-19T09:57:42;97896.14;;;27.90;41.09
71996;BME280;59862;47.732;7.346;2023-06-19T10:00:12;97896.75;;;27.87;38.97
71996;BME280;59862;47.732;7.346;2023-06-19T10:02:42;97896.81;;;27.82;40.34
71996;BME280;59862;47.732;7.346;2023-06-19T10:05:09;97901.16;;;27.67;41.26
71996;BME280;59862;47.732;7.346;2023-06-19T10:07:44;97897.98;;;27.55;42.75
71996;BME280;59862;47.732;7.346;2023-06-19T10:10:26;97901.56;;;27.55;41.92
71996;BME280;59862;47.732;7.346;2023-06-19T10:12:57;97892.28;;;27.23;43.16
71996;BME280;59862;47.732;7.346;2023-06-19T10:15:29;97891.28;;;27.40;43.20
71996;BME280;59862;47.732;7.346;2023-06-19T10:18:04;97895.36;;;27.66;42.00
71996;BME280;59862;47.732;7.346;2023-06-19T10:20:33;97895.30;;;27.71;42.29
71996;BME280;59862;47.732;7.346;2023-06-19T10:23:17;97894.45;;;27.52;42.18
71996;BME280;59862;47.732;7.346;2023-06-19T10:25:56;97900.23;;;27.74;41.56
71996;BME280;59862;47.732;7.346;2023-06-19T10:28:27;97894.11;;;27.77;42.38
71996;BME280;59862;47.732;7.346;2023-06-19T10:30:59;97899.02;;;27.83;43.85
71996;BME280;59862;47.732;7.346;2023-06-19T10:33:29;97892.73;;;27.77;43.43
71996;BME280;59862;47.732;7.346;2023-06-19T10:35:59;97892.77;;;27.53;42.39
71996;BME280;59862;47.732;7.346;2023-06-19T10:38:27;97898.83;;;27.53;42.59
71996;BME280;59862;47.732;7.346;2023-06-19T10:40:55;97903.70;;;28.03;43.43
71996;BME280;59862;47.732;7.346;2023-06-19T10:43:24;97898.95;;;28.62;43.53
71996;BME280;59862;47.732;7.346;2023-06-19T10:45:53;97898.66;;;28.26;41.37
71996;BME280;59862;47.732;7.346;2023-06-19T10:48:23;97912.73;;;28.65;42.50
71996;BME280;59862;47.732;7.346;2023-06-19T10:50:51;97908.92;;;28.93;41.36
71996;BME280;59862;47.732;7.346;2023-06-19T10:53:30;97906.72;;;29.52;40.54
71996;BME280;59862;47.732;7.346;2023-06-19T10:56:00;97900.91;;;29.64;39.03
71996;BME280;59862;47.732;7.346;2023-06-19T10:58:29;97901.38;;;29.55;38.23
71996;BME280;59862;47.732;7.346;2023-06-19T11:00:57;97894.75;;;28.97;39.10
71996;BME280;59862;47.732;7.346;2023-06-19T11:03:25;97898.14;;;29.07;39.90
71996;BME280;59862;47.732;7.346;2023-06-19T11:05:52;97898.38;;;28.95;37.70
71996;BME280;59862;47.732;7.346;2023-06-19T11:08:21;97890.25;;;29.31;39.15
71996;BME280;59862;47.732;7.346;2023-06-19T11:10:50;97887.29;;;29.27;39.82
71996;BME280;59862;47.732;7.346;2023-06-19T11:13:19;97884.72;;;29.01;39.49
71996;BME280;59862;47.732;7.346;2023-06-19T11:15:50;97880.83;;;29.18;39.95
71996;BME280;59862;47.732;7.346;2023-06-19T11:18:18;97880.05;;;29.15;37.63
71996;BME280;59862;47.732;7.346;2023-06-19T11:20:52;97878.80;;;29.07;38.65
71996;BME280;59862;47.732;7.346;2023-06-19T11:23:28;97870.20;;;28.63;39.05
71996;BME280;59862;47.732;7.346;2023-06-19T11:26:03;97869.30;;;28.17;39.50
71996;BME280;59862;47.732;7.346;2023-06-19T11:28:32;97864.95;;;28.29;39.66
71996;BME280;59862;47.732;7.346;2023-06-19T11:31:04;97863.22;;;27.96;39.45
71996;BME280;59862;47.732;7.346;2023-06-19T11:33:31;97865.91;;;28.38;38.65
71996;BME280;59862;47.732;7.346;2023-06-19T11:36:01;97865.97;;;28.52;39.68
71996;BME280;59862;47.732;7.346;2023-06-19T11:38:29;97869.22;;;28.73;38.24
71996;BME280;59862;47.732;7.346;2023-06-19T11:40:57;97863.58;;;28.94;38.92
71996;BME280;59862;47.732;7.346;2023-06-19T11:43:31;97865.82;;;28.92;38.70
71996;BME280;59862;47.732;7.346;2023-06-19T11:46:06;97861.95;;;29.06;37.74
71996;BME280;59862;47.732;7.346;2023-06-19T11:48:38;97850.76;;;29.68;38.55
71996;BME280;59862;47.732;7.346;2023-06-19T11:51:06;97851.77;;;31.67;33.65
71996;BME280;59862;47.732;7.346;2023-06-19T11:53:34;97856.80;;;33.19;32.48
71996;BME280;59862;47.732;7.346;2023-06-19T11:56:01;97860.64;;;34.37;29.91
71996;BME280;59862;47.732;7.346;2023-06-19T11:58:29;97854.59;;;34.94;28.56
71996;BME280;59862;47.732;7.346;2023-06-19T12:00:57;97853.80;;;33.85;28.66
71996;BME280;59862;47.732;7.346;2023-06-19T12:03:25;97849.55;;;33.12;30.84
71996;BME280;59862;47.732;7.346;2023-06-19T12:05:53;97854.14;;;31.99;31.34
71996;BME280;59862;47.732;7.346;2023-06-19T12:08:20;97849.80;;;31.19;33.06
71996;BME280;59862;47.732;7.346;2023-06-19T12:10:48;97844.52;;;30.01;35.31
71996;BME280;59862;47.732;7.346;2023-06-19T12:13:16;97838.55;;;29.31;36.44
71996;BME280;59862;47.732;7.346;2023-06-19T12:15:43;97846.55;;;29.19;37.80
71996;BME280;59862;47.732;7.346;2023-06-19T12:18:11;97846.48;;;28.92;39.03
71996;BME280;59862;47.732;7.346;2023-06-19T12:20:38;97842.30;;;28.65;38.05
71996;BME280;59862;47.732;7.346;2023-06-19T12:23:06;97833.50;;;28.63;37.70
71996;BME280;59862;47.732;7.346;2023-06-19T12:25:33;97835.87;;;28.83;38.40
71996;BME280;59862;47.732;7.346;2023-06-19T12:28:01;97830.12;;;29.09;39.39
71996;BME280;59862;47.732;7.346;2023-06-19T12:30:30;97824.13;;;29.34;38.96
71996;BME280;59862;47.732;7.346;2023-06-19T12:32:58;97818.41;;;29.55;36.95
71996;BME280;59862;47.732;7.346;2023-06-19T12:35:25;97819.72;;;29.71;37.19
71996;BME280;59862;47.732;7.346;2023-06-19T12:37:53;97816.79;;;30.15;35.65
71996;BME280;59862;47.732;7.346;2023-06-19T12:40:21;97815.02;;;30.63;35.34
71996;BME280;59862;47.732;7.346;2023-06-19T12:42:49;97819.53;;;31.31;34.00
71996;BME280;59862;47.732;7.346;2023-06-19T12:45:16;97812.12;;;30.68;34.15
71996;BME280;59862;47.732;7.346;2023-06-19T12:47:44;97809.89;;;31.29;34.07
71996;BME280;59862;47.732;7.346;2023-06-19T12:50:11;97810.51;;;33.00;33.15
71996;BME280;59862;47.732;7.346;2023-06-19T12:52:39;97808.28;;;35.08;29.57
71996;BME280;59862;47.732;7.346;2023-06-19T12:55:07;97813.16;;;37.06;27.27
71996;BME280;59862;47.732;7.346;2023-06-19T12:57:34;97809.48;;;38.19;25.66
71996;BME280;59862;47.732;7.346;2023-06-19T13:00:03;97810.93;;;38.76;22.02
71996;BME280;59862;47.732;7.346;2023-06-19T13:02:34;97816.85;;;39.13;22.24
71996;BME280;59862;47.732;7.346;2023-06-19T13:05:01;97811.42;;;40.11;22.53
71996;BME280;59862;47.732;7.346;2023-06-19T13:07:29;97814.39;;;40.52;21.03
71996;BME280;59862;47.732;7.346;2023-06-19T13:09:57;97804.25;;;41.37;19.72
71996;BME280;59862;47.732;7.346;2023-06-19T13:12:24;97794.14;;;40.89;20.34